sensor_id;sensor_type;location;lat;lon;timestamp;pressure;altitude;pressure_sealevel;temperature;humidity
14800;BME280;7491;57.750;11.970;2022-10-16T00:01:16;74633.09;;;-142.11;100.00
14800;BME280;7491;57.750;11.970;2022-10-16T00:03:44;74651.44;;;-142.11;100.00
14800;BME280;7491;57.750;11.970;2022-10-16T00:06:12;74655.50;;;-142.11;100.00
14800;BME280;7491;57.750;11.970;2022-10-16T00:08:39;74655.50;;;-142.11;100.00
14800;BME280;7491;57.750;11.970;2022-10-16T00:11:10;74661.63;;;-142.11;100.00
14800;BME280;7491;57.750;11.970;2022-10-16T00:13:39;74684.03;;;-142.11;100.00
14800;BME280;7491;57.750;11.970;2022-10-16T00:16:06;74704.41;;;-142.11;100.00
14800;BME280;7491;57.750;11.970;2022-10-16T00:18:33;74704.41;;;-142.11;100.00
14800;BME280;7491;57.750;11.970;2022-10-16T00:21:02;74720.72;;;-142.11;100.00
14800;BME280;7491;57.750;11.970;2022-10-16T00:23:30;74732.94;;;-142.11;100.00
14800;BME280;7491;57.750;11.970;2022-10-16T00:25:58;74741.09;;;-142.11;100.00
14800;BME280;7491;57.750;11.970;2022-10-16T00:28:26;74745.16;;;-142.11;100.00
14800;BME280;7491;57.750;11.970;2022-10-16T00:30:53;74745.16;;;-142.11;100.00
14800;BME280;7491;57.750;11.970;2022-10-16T00:33:20;74755.34;;;-142.11;100.00
14800;BME280;7491;57.750;11.970;2022-10-16T00:35:47;74749.25;;;-142.11;100.00
14800;BME280;7491;57.750;11.970;2022-10-16T00:38:14;74761.47;;;-142.11;100.00
14800;BME280;7491;57.750;11.970;2022-10-16T00:40:41;74771.66;;;-142.11;100.00
14800;BME280;7491;57.750;11.970;2022-10-16T00:43:12;74787.94;;;-142.11;100.00
14800;BME280;7491;57.750;11.970;2022-10-16T00:45:41;74787.94;;;-142.11;100.00
14800;BME280;7491;57.750;11.970;2022-10-16T00:48:11;74794.06;;;-142.11;100.00
14800;BME280;7491;57.750;11.970;2022-10-16T00:50:39;74796.09;;;-142.11;100.00
14800;BME280;7491;57.750;11.970;2022-10-16T00:53:08;74810.38;;;-142.11;100.00
14800;BME280;7491;57.750;11.970;2022-10-16T00:55:36;74808.31;;;-142.11;100.00
14800;BME280;7491;57.750;11.970;2022-10-16T00:58:03;74818.53;;;-142.11;100.00
14800;BME280;7491;57.750;11.970;2022-10-16T01:00:29;74820.56;;;-142.11;100.00
14800;BME280;7491;57.750;11.970;2022-10-16T01:02:59;74826.66;;;-142.11;100.00
14800;BME280;7491;57.750;11.970;2022-10-16T01:05:30;74834.81;;;-142.11;100.00
14800;BME280;7491;57.750;11.970;2022-10-16T01:08:08;74855.19;;;-142.11;100.00
14800;BME280;7491;57.750;11.970;2022-10-16T01:10:40;74867.44;;;-142.11;100.00
14800;BME280;7491;57.750;11.970;2022-10-16T01:13:11;74873.53;;;-142.11;100.00
14800;BME280;7491;57.750;11.970;2022-10-16T01:15:46;74883.72;;;-142.11;100.00
14800;BME280;7491;57.750;11.970;2022-10-16T01:18:18;74885.75;;;-142.11;100.00
14800;BME280;7491;57.750;11.970;2022-10-16T01:20:50;74908.19;;;-142.11;100.00
14800;BME280;7491;57.750;11.970;2022-10-16T01:23:28;74906.13;;;-142.11;100.00
14800;BME280;7491;57.750;11.970;2022-10-16T01:26:08;74916.31;;;-142.11;100.00
14800;BME280;7491;57.750;11.970;2022-10-16T01:28:44;74918.38;;;-142.11;100.00
14800;BME280;7491;57.750;11.970;2022-10-16T01:31:15;74934.66;;;-142.11;100.00
14800;BME280;7491;57.750;11.970;2022-10-16T01:33:47;74924.47;;;-142.11;100.00
14800;BME280;7491;57.750;11.970;2022-10-16T01:36:19;74942.81;;;-142.11;100.00
14800;BME280;7491;57.750;11.970;2022-10-16T01:38:49;74953.00;;;-142.11;100.00
14800;BME280;7491;57.750;11.970;2022-10-16T01:41:21;74963.19;;;-142.11;100.00
14800;BME280;7491;57.750;11.970;2022-10-16T01:43:57;74983.56;;;-142.11;100.00
14800;BME280;7491;57.750;11.970;2022-10-16T01:46:26;74993.75;;;-142.11;100.00
14800;BME280;7491;57.750;11.970;2022-10-16T01:48:55;75010.06;;;-142.11;100.00
14800;BME280;7491;57.750;11.970;2022-10-16T01:51:22;75006.00;;;-142.11;100.00
14800;BME280;7491;57.750;11.970;2022-10-16T01:53:53;75001.91;;;-142.11;100.00
14800;BME280;7491;57.750;11.970;2022-10-16T01:56:21;75024.34;;;-142.11;100.00
14800;BME280;7491;57.750;11.970;2022-10-16T01:58:53;75018.22;;;-142.11;100.00
14800;BME280;7491;57.750;11.970;2022-10-16T02:01:22;75022.28;;;-142.11;100.00
14800;BME280;7491;57.750;11.970;2022-10-16T02:03:53;75046.75;;;-142.11;100.00
14800;BME280;7491;57.750;11.970;2022-10-16T02:06:20;75065.09;;;-142.11;100.00
14800;BME280;7491;57.750;11.970;2022-10-16T02:08:47;75071.19;;;-142.11;100.00
14800;BME280;7491;57.750;11.970;2022-10-16T02:11:13;75087.50;;;-142.11;100.00
14800;BME280;7491;57.750;11.970;2022-10-16T02:13:44;75093.63;;;-142.11;100.00
14800;BME280;7491;57.750;11.970;2022-10-16T02:16:14;75099.72;;;-142.11;100.00
14800;BME280;7491;57.750;11.970;2022-10-16T02:18:41;75103.81;;;-142.11;100.00
14800;BME280;7491;57.750;11.970;2022-10-16T02:21:13;75118.06;;;-142.11;100.00
14800;BME280;7491;57.750;11.970;2022-10-16T02:23:47;75130.31;;;-142.11;100.00
14800;BME280;7491;57.750;11.970;2022-10-16T02:26:25;75134.38;;;-142.11;100.00
14800;BME280;7491;57.750;11.970;2022-10-16T02:28:57;75136.41;;;-142.11;100.00
14800;BME280;7491;57.750;11.970;2022-10-16T02:31:31;75132.34;;;-142.11;100.00
14800;BME280;7491;57.750;11.970;2022-10-16T02:34:00;75132.34;;;-142.11;100.00
14800;BME280;7491;57.750;11.970;2022-10-16T02:36:30;75152.72;;;-142.11;100.00
14800;BME280;7491;57.750;11.970;2022-10-16T02:38:58;75140.50;;;-142.11;100.00
14800;BME280;7491;57.750;11.970;2022-10-16T02:41:25;75140.50;;;-142.11;100.00
14800;BME280;7491;57.750;11.970;2022-10-16T02:43:52;75122.16;;;-142.11;100.00
14800;BME280;7491;57.750;11.970;2022-10-16T02:46:20;75116.03;;;-142.11;100.00
14800;BME280;7491;57.750;11.970;2022-10-16T02:48:48;75105.84;;;-142.11;100.00
14800;BME280;7491;57.750;11.970;2022-10-16T02:51:15;75101.78;;;-142.11;100.00
14800;BME280;7491;57.750;11.970;2022-10-16T02:53:42;75111.97;;;-142.11;100.00
14800;BME280;7491;57.750;11.970;2022-10-16T02:56:08;75105.84;;;-142.11;100.00
14800;BME280;7491;57.750;11.970;2022-10-16T02:58:35;75109.94;;;-142.11;100.00
14800;BME280;7491;57.750;11.970;2022-10-16T03:01:01;75105.84;;;-142.11;100.00
14800;BME280;7491;57.750;11.970;2022-10-16T03:03:28;75093.63;;;-142.11;100.00
14800;BME280;7491;57.750;11.970;2022-10-16T03:05:56;75097.69;;;-142.11;100.00
14800;BME280;7491;57.750;11.970;2022-10-16T03:08:23;75089.53;;;-142.11;100.00
14800;BME280;7491;57.750;11.970;2022-10-16T03:10:51;75103.81;;;-142.11;100.00
14800;BME280;7491;57.750;11.970;2022-10-16T03:13:18;75120.13;;;-142.11;100.00
14800;BME280;7491;57.750;11.970;2022-10-16T03:15:45;75087.50;;;-142.11;100.00
14800;BME280;7491;57.750;11.970;2022-10-16T03:18:12;75075.28;;;-142.11;100.00
14800;BME280;7491;57.750;11.970;2022-10-16T03:20:39;75075.28;;;-142.11;100.00
14800;BME280;7491;57.750;11.970;2022-10-16T03:23:07;75075.28;;;-142.11;100.00
14800;BME280;7491;57.750;11.970;2022-10-16T03:25:34;75085.47;;;-142.11;100.00
14800;BME280;7491;57.750;11.970;2022-10-16T03:28:01;75079.34;;;-142.11;100.00
14800;BME280;7491;57.750;11.970;2022-10-16T03:30:28;75075.28;;;-142.11;100.00
14800;BME280;7491;57.750;11.970;2022-10-16T03:32:55;75083.44;;;-142.11;100.00
14800;BME280;7491;57.750;11.970;2022-10-16T03:35:22;75091.59;;;-142.11;100.00
14800;BME280;7491;57.750;11.970;2022-10-16T03:37:49;75083.44;;;-142.11;100.00
14800;BME280;7491;57.750;11.970;2022-10-16T03:40:17;75095.66;;;-142.11;100.00
14800;BME280;7491;57.750;11.970;2022-10-16T03:42:44;75093.63;;;-142.11;100.00
14800;BME280;7491;57.750;11.970;2022-10-16T03:45:11;75103.81;;;-142.11;100.00
14800;BME280;7491;57.750;11.970;2022-10-16T03:47:37;75105.84;;;-142.11;100.00
14800;BME280;7491;57.750;11.970;2022-10-16T03:50:05;75120.13;;;-142.11;100.00
14800;BME280;7491;57.750;11.970;2022-10-16T03:52:32;75124.19;;;-142.11;100.00
14800;BME280;7491;57.750;11.970;2022-10-16T03:54:59;75130.31;;;-142.11;100.00
14800;BME280;7491;57.750;11.970;2022-10-16T03:57:27;75144.56;;;-142.11;100.00
14800;BME280;7491;57.750;11.970;2022-10-16T03:59:53;75148.66;;;-142.11;100.00
14800;BME280;7491;57.750;11.970;2022-10-16T04:02:20;75152.72;;;-142.11;100.00
14800;BME280;7491;57.750;11.970;2022-10-16T04:04:47;75175.13;;;-142.11;100.00
14800;BME280;7491;57.750;11.970;2022-10-16T04:07:14;75191.44;;;-142.11;100.00
14800;BME280;7491;57.750;11.970;2022-10-16T04:09:40;75197.56;;;-142.11;100.00
14800;BME280;7491;57.750;11.970;2022-10-16T04:12:07;75197.56;;;-142.11;100.00
14800;BME280;7491;57.750;11.970;2022-10-16T04:14:35;75224.03;;;-142.11;100.00
14800;BME280;7491;57.750;11.970;2022-10-16T04:17:02;75217.94;;;-142.11;100.00
14800;BME280;7491;57.750;11.970;2022-10-16T04:19:28;75219.97;;;-142.11;100.00
14800;BME280;7491;57.750;11.970;2022-10-16T04:21:55;75234.22;;;-142.11;100.00
14800;BME280;7491;57.750;11.970;2022-10-16T04:24:22;75234.22;;;-142.11;100.00
14800;BME280;7491;57.750;11.970;2022-10-16T04:26:49;75242.38;;;-142.11;100.00
14800;BME280;7491;57.750;11.970;2022-10-16T04:29:15;75254.63;;;-142.11;100.00
14800;BME280;7491;57.750;11.970;2022-10-16T04:31:43;75246.47;;;-142.11;100.00
14800;BME280;7491;57.750;11.970;2022-10-16T04:34:10;75264.81;;;-142.11;100.00
14800;BME280;7491;57.750;11.970;2022-10-16T04:36:37;75262.75;;;-142.11;100.00
14800;BME280;7491;57.750;11.970;2022-10-16T04:39:03;75272.97;;;-142.11;100.00
14800;BME280;7491;57.750;11.970;2022-10-16T04:41:30;75268.88;;;-142.11;100.00
14800;BME280;7491;57.750;11.970;2022-10-16T04:43:57;75270.91;;;-142.11;100.00
14800;BME280;7491;57.750;11.970;2022-10-16T04:46:24;75283.16;;;-142.11;100.00
14800;BME280;7491;57.750;11.970;2022-10-16T04:48:52;75293.34;;;-142.11;100.00
14800;BME280;7491;57.750;11.970;2022-10-16T04:51:19;75297.41;;;-142.11;100.00
14800;BME280;7491;57.750;11.970;2022-10-16T04:53:46;75299.44;;;-142.11;100.00
14800;BME280;7491;57.750;11.970;2022-10-16T04:56:12;75301.50;;;-142.11;100.00
14800;BME280;7491;57.750;11.970;2022-10-16T04:58:40;75307.59;;;-142.11;100.00
14800;BME280;7491;57.750;11.970;2022-10-16T05:01:07;75307.59;;;-142.11;100.00
14800;BME280;7491;57.750;11.970;2022-10-16T05:03:34;75327.97;;;-142.11;100.00
14800;BME280;7491;57.750;11.970;2022-10-16T05:06:04;75330.03;;;-142.11;100.00
14800;BME280;7491;57.750;11.970;2022-10-16T05:08:31;75297.41;;;-142.11;100.00
14800;BME280;7491;57.750;11.970;2022-10-16T05:10:58;75303.53;;;-142.11;100.00
14800;BME280;7491;57.750;11.970;2022-10-16T05:13:25;75289.25;;;-142.11;100.00
14800;BME280;7491;57.750;11.970;2022-10-16T05:15:51;75289.25;;;-142.11;100.00
14800;BME280;7491;57.750;11.970;2022-10-16T05:18:18;75275.00;;;-142.11;100.00
14800;BME280;7491;57.750;11.970;2022-10-16T05:20:45;75262.75;;;-142.11;100.00
14800;BME280;7491;57.750;11.970;2022-10-16T05:23:13;75258.69;;;-142.11;100.00
14800;BME280;7491;57.750;11.970;2022-10-16T05:25:40;75256.66;;;-142.11;100.00
14800;BME280;7491;57.750;11.970;2022-10-16T05:28:06;75236.28;;;-142.11;100.00
14800;BME280;7491;57.750;11.970;2022-10-16T05:30:33;75213.84;;;-142.11;100.00
14800;BME280;7491;57.750;11.970;2022-10-16T05:33:00;75207.75;;;-142.11;100.00
14800;BME280;7491;57.750;11.970;2022-10-16T05:35:26;75193.47;;;-142.11;100.00
14800;BME280;7491;57.750;11.970;2022-10-16T05:37:53;75181.25;;;-142.11;100.00
14800;BME280;7491;57.750;11.970;2022-10-16T05:40:21;75179.22;;;-142.11;100.00
14800;BME280;7491;57.750;11.970;2022-10-16T05:42:48;75181.25;;;-142.11;100.00
14800;BME280;7491;57.750;11.970;2022-10-16T05:45:15;75177.16;;;-142.11;100.00
14800;BME280;7491;57.750;11.970;2022-10-16T05:47:41;75185.31;;;-142.11;100.00
14800;BME280;7491;57.750;11.970;2022-10-16T05:50:08;75179.22;;;-142.11;100.00
14800;BME280;7491;57.750;11.970;2022-10-16T05:52:35;75181.25;;;-142.11;100.00
14800;BME280;7491;57.750;11.970;2022-10-16T05:55:02;75173.09;;;-142.11;100.00
14800;BME280;7491;57.750;11.970;2022-10-16T05:57:30;75164.94;;;-142.11;100.00
14800;BME280;7491;57.750;11.970;2022-10-16T05:59:57;75160.88;;;-142.11;100.00
14800;BME280;7491;57.750;11.970;2022-10-16T06:02:23;75144.56;;;-142.11;100.00
14800;BME280;7491;57.750;11.970;2022-10-16T06:04:51;75142.53;;;-142.11;100.00
14800;BME280;7491;57.750;11.970;2022-10-16T06:07:19;75140.50;;;-142.11;100.00
14800;BME280;7491;57.750;11.970;2022-10-16T06:09:48;75144.56;;;-142.11;100.00
14800;BME280;7491;57.750;11.970;2022-10-16T06:12:15;75120.13;;;-142.11;100.00
14800;BME280;7491;57.750;11.970;2022-10-16T06:14:44;75114.00;;;-142.11;100.00
14800;BME280;7491;57.750;11.970;2022-10-16T06:17:12;75099.72;;;-142.11;100.00
14800;BME280;7491;57.750;11.970;2022-10-16T06:19:38;75097.69;;;-142.11;100.00
14800;BME280;7491;57.750;11.970;2022-10-16T06:22:05;75105.84;;;-142.11;100.00
14800;BME280;7491;57.750;11.970;2022-10-16T06:24:32;75093.63;;;-142.11;100.00
14800;BME280;7491;57.750;11.970;2022-10-16T06:26:59;75091.59;;;-142.11;100.00
14800;BME280;7491;57.750;11.970;2022-10-16T06:29:25;75079.34;;;-142.11;100.00
14800;BME280;7491;57.750;11.970;2022-10-16T06:31:53;75081.41;;;-142.11;100.00
14800;BME280;7491;57.750;11.970;2022-10-16T06:34:20;75069.16;;;-142.11;100.00
14800;BME280;7491;57.750;11.970;2022-10-16T06:36:47;75050.81;;;-142.11;100.00
14800;BME280;7491;57.750;11.970;2022-10-16T06:39:13;75030.44;;;-142.11;100.00
14800;BME280;7491;57.750;11.970;2022-10-16T06:41:40;75020.25;;;-142.11;100.00
14800;BME280;7491;57.750;11.970;2022-10-16T06:44:07;75016.19;;;-142.11;100.00
14800;BME280;7491;57.750;11.970;2022-10-16T06:46:34;75008.03;;;-142.11;100.00
14800;BME280;7491;57.750;11.970;2022-10-16T06:49:02;75003.97;;;-142.11;100.00
14800;BME280;7491;57.750;11.970;2022-10-16T06:51:29;74985.63;;;-142.11;100.00
14800;BME280;7491;57.750;11.970;2022-10-16T06:53:57;74975.44;;;-142.11;100.00
14800;BME280;7491;57.750;11.970;2022-10-16T06:56:25;74963.19;;;-142.11;100.00
14800;BME280;7491;57.750;11.970;2022-10-16T06:58:53;74953.00;;;-142.11;100.00
14800;BME280;7491;57.750;11.970;2022-10-16T07:01:22;74938.75;;;-142.11;100.00
14800;BME280;7491;57.750;11.970;2022-10-16T07:03:50;74914.28;;;-142.11;100.00
14800;BME280;7491;57.750;11.970;2022-10-16T07:06:20;74908.19;;;-142.11;100.00
14800;BME280;7491;57.750;11.970;2022-10-16T07:08:47;74887.81;;;-142.11;100.00
14800;BME280;7491;57.750;11.970;2022-10-16T07:11:16;74887.81;;;-142.11;100.00
14800;BME280;7491;57.750;11.970;2022-10-16T07:13:44;74885.75;;;-142.11;100.00
14800;BME280;7491;57.750;11.970;2022-10-16T07:16:14;74863.34;;;-142.11;100.00
14800;BME280;7491;57.750;11.970;2022-10-16T07:18:42;74861.31;;;-142.11;100.00
14800;BME280;7491;57.750;11.970;2022-10-16T07:21:12;74851.13;;;-142.11;100.00
14800;BME280;7491;57.750;11.970;2022-10-16T07:23:41;74859.28;;;-142.11;100.00
14800;BME280;7491;57.750;11.970;2022-10-16T07:26:09;74845.00;;;-142.11;100.00
14800;BME280;7491;57.750;11.970;2022-10-16T07:28:36;74840.94;;;-142.11;100.00
14800;BME280;7491;57.750;11.970;2022-10-16T07:31:06;74838.91;;;-142.11;100.00
14800;BME280;7491;57.750;11.970;2022-10-16T07:33:36;74828.72;;;-142.11;100.00
14800;BME280;7491;57.750;11.970;2022-10-16T07:36:04;74826.66;;;-142.11;100.00
14800;BME280;7491;57.750;11.970;2022-10-16T07:38:31;74818.53;;;-142.11;100.00
14800;BME280;7491;57.750;11.970;2022-10-16T07:41:01;74810.38;;;-142.11;100.00
14800;BME280;7491;57.750;11.970;2022-10-16T07:43:28;74804.25;;;-142.11;100.00
14800;BME280;7491;57.750;11.970;2022-10-16T07:45:56;74810.38;;;-142.11;100.00
14800;BME280;7491;57.750;11.970;2022-10-16T07:48:24;74779.81;;;-142.11;100.00
14800;BME280;7491;57.750;11.970;2022-10-16T07:50:57;74773.69;;;-142.11;100.00
14800;BME280;7491;57.750;11.970;2022-10-16T07:53:23;74790.00;;;-142.11;100.00
14800;BME280;7491;57.750;11.970;2022-10-16T07:55:50;74771.66;;;-142.11;100.00
14800;BME280;7491;57.750;11.970;2022-10-16T07:58:19;74765.53;;;-142.11;100.00
14800;BME280;7491;57.750;11.970;2022-10-16T08:00:45;74781.84;;;-142.11;100.00
14800;BME280;7491;57.750;11.970;2022-10-16T08:03:12;74771.66;;;-142.11;100.00
14800;BME280;7491;57.750;11.970;2022-10-16T08:05:39;74767.56;;;-142.11;100.00
14800;BME280;7491;57.750;11.970;2022-10-16T08:08:05;74747.19;;;-142.11;100.00
14800;BME280;7491;57.750;11.970;2022-10-16T08:10:35;74749.25;;;-142.11;100.00
14800;BME280;7491;57.750;11.970;2022-10-16T08:13:02;74739.03;;;-142.11;100.00
14800;BME280;7491;57.750;11.970;2022-10-16T08:15:30;74728.88;;;-142.11;100.00
14800;BME280;7491;57.750;11.970;2022-10-16T08:17:59;74741.09;;;-142.11;100.00
14800;BME280;7491;57.750;11.970;2022-10-16T08:20:27;74728.88;;;-142.11;100.00
14800;BME280;7491;57.750;11.970;2022-10-16T08:22:54;74710.53;;;-142.11;100.00
14800;BME280;7491;57.750;11.970;2022-10-16T08:25:21;74706.44;;;-142.11;100.00
14800;BME280;7491;57.750;11.970;2022-10-16T08:27:48;74700.34;;;-142.11;100.00
14800;BME280;7491;57.750;11.970;2022-10-16T08:30:16;74700.34;;;-142.11;100.00
14800;BME280;7491;57.750;11.970;2022-10-16T08:32:44;74728.88;;;-142.11;100.00
14800;BME280;7491;57.750;11.970;2022-10-16T08:35:12;74730.91;;;-142.11;100.00
14800;BME280;7491;57.750;11.970;2022-10-16T08:37:40;74710.53;;;-142.11;100.00
14800;BME280;7491;57.750;11.970;2022-10-16T08:40:18;74706.44;;;-142.11;100.00
14800;BME280;7491;57.750;11.970;2022-10-16T08:43:04;74692.19;;;-142.11;100.00
14800;BME280;7491;57.750;11.970;2022-10-16T08:45:44;74684.03;;;-142.11;100.00
14800;BME280;7491;57.750;11.970;2022-10-16T08:48:22;74661.63;;;-142.11;100.00
14800;BME280;7491;57.750;11.970;2022-10-16T08:50:53;74673.84;;;-142.11;100.00
14800;BME280;7491;57.750;11.970;2022-10-16T08:53:24;74647.34;;;-142.11;100.00
14800;BME280;7491;57.750;11.970;2022-10-16T08:55:53;74645.31;;;-142.11;100.00
14800;BME280;7491;57.750;11.970;2022-10-16T08:58:21;74643.28;;;-142.11;100.00
14800;BME280;7491;57.750;11.970;2022-10-16T09:00:51;74647.34;;;-142.11;100.00
14800;BME280;7491;57.750;11.970;2022-10-16T09:03:33;74637.16;;;-142.11;100.00
14800;BME280;7491;57.750;11.970;2022-10-16T09:06:21;74631.06;;;-142.11;100.00
14800;BME280;7491;57.750;11.970;2022-10-16T09:09:06;74612.72;;;-142.11;100.00
14800;BME280;7491;57.750;11.970;2022-10-16T09:11:45;74622.91;;;-142.11;100.00
14800;BME280;7491;57.750;11.970;2022-10-16T09:14:28;74614.75;;;-142.11;100.00
14800;BME280;7491;57.750;11.970;2022-10-16T09:17:11;74600.50;;;-142.11;100.00
14800;BME280;7491;57.750;11.970;2022-10-16T09:19:46;74633.09;;;-142.11;100.00
14800;BME280;7491;57.750;11.970;2022-10-16T09:22:17;74624.94;;;-142.11;100.00
14800;BME280;7491;57.750;11.970;2022-10-16T09:24:48;74647.34;;;-142.11;100.00
14800;BME280;7491;57.750;11.970;2022-10-16T09:27:14;74643.28;;;-142.11;100.00
14800;BME280;7491;57.750;11.970;2022-10-16T09:29:41;74647.34;;;-142.11;100.00
14800;BME280;7491;57.750;11.970;2022-10-16T09:32:13;74655.50;;;-142.11;100.00
14800;BME280;7491;57.750;11.970;2022-10-16T09:34:45;74639.22;;;-142.11;100.00
14800;BME280;7491;57.750;11.970;2022-10-16T09:37:18;74631.06;;;-142.11;100.00
14800;BME280;7491;57.750;11.970;2022-10-16T09:39:47;74639.22;;;-142.11;100.00
14800;BME280;7491;57.750;11.970;2022-10-16T09:42:16;74641.25;;;-142.11;100.00
14800;BME280;7491;57.750;11.970;2022-10-16T09:44:53;74651.44;;;-142.11;100.00
14800;BME280;7491;57.750;11.970;2022-10-16T09:47:24;74647.34;;;-142.11;100.00
14800;BME280;7491;57.750;11.970;2022-10-16T09:49:55;74653.47;;;-142.11;100.00
14800;BME280;7491;57.750;11.970;2022-10-16T09:52:24;74631.06;;;-142.11;100.00
14800;BME280;7491;57.750;11.970;2022-10-16T09:54:53;74637.16;;;-142.11;100.00
14800;BME280;7491;57.750;11.970;2022-10-16T09:57:23;74618.84;;;-142.11;100.00
14800;BME280;7491;57.750;11.970;2022-10-16T09:59:51;74637.16;;;-142.11;100.00
14800;BME280;7491;57.750;11.970;2022-10-16T10:02:29;74631.06;;;-142.11;100.00
14800;BME280;7491;57.750;11.970;2022-10-16T10:04:58;74612.72;;;-142.11;100.00
14800;BME280;7491;57.750;11.970;2022-10-16T10:07:26;74602.53;;;-142.11;100.00
14800;BME280;7491;57.750;11.970;2022-10-16T10:09:57;74582.16;;;-142.11;100.00
14800;BME280;7491;57.750;11.970;2022-10-16T10:12:38;74594.38;;;-142.11;100.00
14800;BME280;7491;57.750;11.970;2022-10-16T10:15:07;74584.19;;;-142.11;100.00
14800;BME280;7491;57.750;11.970;2022-10-16T10:17:45;74582.16;;;-142.11;100.00
14800;BME280;7491;57.750;11.970;2022-10-16T10:20:23;74545.47;;;-142.11;100.00
14800;BME280;7491;57.750;11.970;2022-10-16T10:22:50;74531.22;;;-142.11;100.00
14800;BME280;7491;57.750;11.970;2022-10-16T10:25:37;74541.41;;;-142.11;100.00
14800;BME280;7491;57.750;11.970;2022-10-16T10:28:17;74553.63;;;-142.11;100.00
14800;BME280;7491;57.750;11.970;2022-10-16T10:30:49;74553.63;;;-142.11;100.00
14800;BME280;7491;57.750;11.970;2022-10-16T10:33:26;74578.06;;;-142.11;100.00
14800;BME280;7491;57.750;11.970;2022-10-16T10:36:06;74596.41;;;-142.11;100.00
14800;BME280;7491;57.750;11.970;2022-10-16T10:38:49;74602.53;;;-142.11;100.00
14800;BME280;7491;57.750;11.970;2022-10-16T10:41:44;74612.72;;;-142.11;100.00
14800;BME280;7491;57.750;11.970;2022-10-16T10:44:25;74618.84;;;-142.11;100.00
14800;BME280;7491;57.750;11.970;2022-10-16T10:47:01;74616.78;;;-142.11;100.00
14800;BME280;7491;57.750;11.970;2022-10-16T10:49:41;74635.13;;;-142.11;100.00
14800;BME280;7491;57.750;11.970;2022-10-16T10:52:30;74635.13;;;-142.11;100.00
14800;BME280;7491;57.750;11.970;2022-10-16T10:55:06;74649.41;;;-142.11;100.00
14800;BME280;7491;57.750;11.970;2022-10-16T10:57:43;74671.81;;;-142.11;100.00
14800;BME280;7491;57.750;11.970;2022-10-16T11:00:20;74677.91;;;-142.11;100.00
14800;BME280;7491;57.750;11.970;2022-10-16T11:02:52;74657.53;;;-142.11;100.00
14800;BME280;7491;57.750;11.970;2022-10-16T11:05:31;74661.63;;;-142.11;100.00
14800;BME280;7491;57.750;11.970;2022-10-16T11:08:10;74645.31;;;-142.11;100.00
14800;BME280;7491;57.750;11.970;2022-10-16T11:10:44;74663.66;;;-142.11;100.00
14800;BME280;7491;57.750;11.970;2022-10-16T11:13:21;74655.50;;;-142.11;100.00
14800;BME280;7491;57.750;11.970;2022-10-16T11:15:56;74643.28;;;-142.11;100.00
14800;BME280;7491;57.750;11.970;2022-10-16T11:18:27;74643.28;;;-142.11;100.00
14800;BME280;7491;57.750;11.970;2022-10-16T11:21:00;74641.25;;;-142.11;100.00
14800;BME280;7491;57.750;11.970;2022-10-16T11:23:40;74641.25;;;-142.11;100.00
14800;BME280;7491;57.750;11.970;2022-10-16T11:26:21;74616.78;;;-142.11;100.00
14800;BME280;7491;57.750;11.970;2022-10-16T11:28:54;74618.84;;;-142.11;100.00
14800;BME280;7491;57.750;11.970;2022-10-16T11:31:25;74614.75;;;-142.11;100.00
14800;BME280;7491;57.750;11.970;2022-10-16T11:34:01;74616.78;;;-142.11;100.00
14800;BME280;7491;57.750;11.970;2022-10-16T11:36:35;74618.84;;;-142.11;100.00
14800;BME280;7491;57.750;11.970;2022-10-16T11:39:11;74629.00;;;-142.11;100.00
14800;BME280;7491;57.750;11.970;2022-10-16T11:41:46;74653.47;;;-142.11;100.00
14800;BME280;7491;57.750;11.970;2022-10-16T11:44:26;74637.16;;;-142.11;100.00
14800;BME280;7491;57.750;11.970;2022-10-16T11:47:05;74647.34;;;-142.11;100.00
14800;BME280;7491;57.750;11.970;2022-10-16T11:49:36;74639.22;;;-142.11;100.00
14800;BME280;7491;57.750;11.970;2022-10-16T11:52:10;74649.41;;;-142.11;100.00
14800;BME280;7491;57.750;11.970;2022-10-16T11:54:47;74657.53;;;-142.11;100.00
14800;BME280;7491;57.750;11.970;2022-10-16T11:57:18;74649.41;;;-142.11;100.00
14800;BME280;7491;57.750;11.970;2022-10-16T11:59:50;74655.50;;;-142.11;100.00
14800;BME280;7491;57.750;11.970;2022-10-16T12:02:33;74810.38;;;-142.11;100.00
14800;BME280;7491;57.750;11.970;2022-10-16T12:05:15;75010.06;;;-142.11;100.00
14800;BME280;7491;57.750;11.970;2022-10-16T12:07:50;75103.81;;;-142.11;100.00
14800;BME280;7491;57.750;11.970;2022-10-16T12:10:24;75152.72;;;-142.11;100.00
14800;BME280;7491;57.750;11.970;2022-10-16T12:12:51;75162.91;;;-142.11;100.00
14800;BME280;7491;57.750;11.970;2022-10-16T12:15:22;75166.97;;;-142.11;100.00
14800;BME280;7491;57.750;11.970;2022-10-16T12:17:49;75164.94;;;-142.11;100.00
14800;BME280;7491;57.750;11.970;2022-10-16T12:20:59;75179.22;;;-142.11;100.00
14800;BME280;7491;57.750;11.970;2022-10-16T12:23:30;75177.16;;;-142.11;100.00
14800;BME280;7491;57.750;11.970;2022-10-16T12:26:00;75164.94;;;-142.11;100.00
14800;BME280;7491;57.750;11.970;2022-10-16T12:28:29;75146.59;;;-142.11;100.00
14800;BME280;7491;57.750;11.970;2022-10-16T12:31:00;75128.25;;;-142.11;100.00
14800;BME280;7491;57.750;11.970;2022-10-16T12:33:30;75111.97;;;-142.11;100.00
14800;BME280;7491;57.750;11.970;2022-10-16T12:35:58;75109.94;;;-142.11;100.00
14800;BME280;7491;57.750;11.970;2022-10-16T12:38:27;75107.88;;;-142.11;100.00
14800;BME280;7491;57.750;11.970;2022-10-16T12:44:23;75046.75;;;-142.11;100.00
14800;BME280;7491;57.750;11.970;2022-10-16T12:46:49;75042.69;;;-142.11;100.00
14800;BME280;7491;57.750;11.970;2022-10-16T12:49:30;75020.25;;;-142.11;100.00